Time;durP1;ratioP1;P1;durP2;ratioP2;P2;SDS_P1;SDS_P2;PMS_P1;PMS_P2;Temp;Humidity;BMP_temperature;BMP_pressure;BME280_temperature;BME280_humidity;BME280_pressure;Samples;Min_cycle;Max_cycle;Signal;HPM_P1;HPM_P2
2023/12/01 00:01:35;;;;;;;65.57;16.97;;;;;;;;;;5039438;28;20568;-66
2023/12/01 00:04:01;;;;;;;64.07;18.43;;;;;;;;;;5034121;28;20033;-66
2023/12/01 00:06:26;;;;;;;75.07;18.83;;;;;;;;;;5039113;28;20385;-70
2023/12/01 00:08:51;;;;;;;73.60;19.13;;;;;;;;;;5038817;28;20028;-69
2023/12/01 00:11:16;;;;;;;73.20;19.80;;;;;;;;;;5051077;28;20543;-69
2023/12/01 00:13:42;;;;;;;66.07;19.60;;;;;;;;;;5041154;28;20031;-70
2023/12/01 00:16:07;;;;;;;66.53;18.57;;;;;;;;;;5035542;28;20605;-69
2023/12/01 00:18:33;;;;;;;67.43;19.40;;;;;;;;;;5050580;28;20017;-70
2023/12/01 00:20:58;;;;;;;63.90;18.33;;;;;;;;;;5041626;28;20048;-72
2023/12/01 00:23:23;;;;;;;59.97;17.80;;;;;;;;;;5039512;28;20022;-72
2023/12/01 00:25:48;;;;;;;62.13;17.73;;;;;;;;;;5037946;28;20029;-71
2023/12/01 00:28:14;;;;;;;57.07;16.70;;;;;;;;;;5037395;28;20039;-72
2023/12/01 00:30:39;;;;;;;59.60;17.57;;;;;;;;;;5039080;28;20453;-69
2023/12/01 00:33:05;;;;;;;68.80;18.37;;;;;;;;;;5041664;28;20124;-72
2023/12/01 00:35:30;;;;;;;60.23;18.73;;;;;;;;;;5040562;28;20083;-73
2023/12/01 00:37:56;;;;;;;62.93;17.80;;;;;;;;;;5041333;28;20025;-74
2023/12/01 00:40:21;;;;;;;64.93;19.13;;;;;;;;;;5035789;28;20429;-71
2023/12/01 00:42:46;;;;;;;60.97;18.17;;;;;;;;;;5040718;28;20021;-71
2023/12/01 00:45:12;;;;;;;61.70;17.93;;;;;;;;;;5039186;28;20020;-73
2023/12/01 00:47:37;;;;;;;55.07;16.70;;;;;;;;;;5040141;28;20017;-73
2023/12/01 00:50:03;;;;;;;57.73;18.37;;;;;;;;;;5039827;28;20040;-69
2023/12/01 00:52:28;;;;;;;64.33;18.87;;;;;;;;;;5030997;28;20441;-72
2023/12/01 00:54:53;;;;;;;57.93;17.80;;;;;;;;;;5039758;28;20029;-72
2023/12/01 00:57:19;;;;;;;51.00;16.20;;;;;;;;;;5039085;28;20107;-69
2023/12/01 00:59:44;;;;;;;47.07;14.43;;;;;;;;;;5037189;28;20253;-69
2023/12/01 01:02:09;;;;;;;47.13;14.40;;;;;;;;;;5040646;28;20025;-69
2023/12/01 01:04:35;;;;;;;40.47;13.57;;;;;;;;;;5036968;28;20450;-69
2023/12/01 01:07:00;;;;;;;32.30;11.43;;;;;;;;;;5039101;28;20060;-72
2023/12/01 01:09:25;;;;;;;32.60;11.07;;;;;;;;;;5040235;28;20035;-71
2023/12/01 01:11:50;;;;;;;33.10;11.30;;;;;;;;;;5033691;28;20022;-69
2023/12/01 01:14:16;;;;;;;35.07;11.87;;;;;;;;;;5035761;28;20390;-71
2023/12/01 01:16:41;;;;;;;33.77;11.47;;;;;;;;;;5033348;28;20422;-66
2023/12/01 01:19:06;;;;;;;30.27;10.90;;;;;;;;;;5039062;28;20009;-63
2023/12/01 01:21:32;;;;;;;25.53;9.37;;;;;;;;;;5039329;28;20043;-63
2023/12/01 01:23:57;;;;;;;28.50;10.17;;;;;;;;;;5036406;28;20021;-64
2023/12/01 01:26:22;;;;;;;33.13;12.07;;;;;;;;;;5040266;28;20388;-65
2023/12/01 01:28:47;;;;;;;33.73;11.23;;;;;;;;;;5036879;28;20017;-64
2023/12/01 01:31:13;;;;;;;34.37;13.03;;;;;;;;;;5038675;28;20021;-65
2023/12/01 01:33:38;;;;;;;36.07;13.17;;;;;;;;;;5039368;28;20053;-66
2023/12/01 01:36:04;;;;;;;36.23;12.97;;;;;;;;;;5037279;28;20543;-64
2023/12/01 01:38:29;;;;;;;37.03;13.83;;;;;;;;;;5039939;28;20013;-65
2023/12/01 01:40:55;;;;;;;35.63;13.10;;;;;;;;;;5040522;28;20036;-67
2023/12/01 01:43:23;;;;;;;34.13;12.60;;;;;;;;;;5039801;28;20053;-65
2023/12/01 01:45:58;;;;;;;22.60;8.20;;;;;;;;;;5038825;28;20072;-64
2023/12/01 01:48:24;;;;;;;27.87;11.17;;;;;;;;;;5034797;28;20017;-65
2023/12/01 01:50:49;;;;;;;19.20;6.00;;;;;;;;;;5036360;28;20462;-65
2023/12/01 01:53:15;;;;;;;34.33;12.90;;;;;;;;;;5034966;28;20042;-65
2023/12/01 01:55:40;;;;;;;30.57;12.30;;;;;;;;;;5037859;28;20373;-65
2023/12/01 01:58:06;;;;;;;37.70;13.43;;;;;;;;;;5038409;28;20032;-65
2023/12/01 02:00:32;;;;;;;29.83;11.77;;;;;;;;;;5035590;28;20021;-66
2023/12/01 02:02:57;;;;;;;30.67;13.00;;;;;;;;;;5035635;28;20031;-65
2023/12/01 02:05:22;;;;;;;36.60;13.03;;;;;;;;;;5037493;28;20377;-64
2023/12/01 02:07:48;;;;;;;33.80;12.07;;;;;;;;;;5032835;28;20024;-64
2023/12/01 02:10:17;;;;;;;33.93;12.80;;;;;;;;;;5038395;28;20127;-64
2023/12/01 02:12:44;;;;;;;34.10;12.63;;;;;;;;;;5036924;28;20100;-66
2023/12/01 02:15:10;;;;;;;26.93;11.73;;;;;;;;;;5038365;28;20373;-64
2023/12/01 02:17:37;;;;;;;26.90;11.57;;;;;;;;;;5037277;28;20025;-65
2023/12/01 02:20:03;;;;;;;30.50;12.30;;;;;;;;;;5029024;28;20036;-66
2023/12/01 02:22:28;;;;;;;31.43;12.03;;;;;;;;;;5031190;28;20373;-65
2023/12/01 02:24:54;;;;;;;30.80;12.03;;;;;;;;;;5031138;28;20108;-66
2023/12/01 02:27:19;;;;;;;29.50;11.07;;;;;;;;;;5038155;28;20032;-72
2023/12/01 02:29:44;;;;;;;31.43;11.27;;;;;;;;;;5035948;28;20029;-72
2023/12/01 02:32:09;;;;;;;29.47;11.20;;;;;;;;;;5034588;28;20458;-71
2023/12/01 02:34:35;;;;;;;29.77;11.07;;;;;;;;;;5033928;28;20044;-69
2023/12/01 02:37:00;;;;;;;35.00;13.13;;;;;;;;;;5039723;28;20021;-70
2023/12/01 02:39:25;;;;;;;32.93;11.17;;;;;;;;;;5034472;28;20029;-70
2023/12/01 02:41:51;;;;;;;34.20;12.10;;;;;;;;;;5034804;28;20031;-72
2023/12/01 02:44:16;;;;;;;32.37;11.07;;;;;;;;;;5039257;28;20370;-72
2023/12/01 02:46:41;;;;;;;25.30;8.67;;;;;;;;;;5038689;28;20025;-71
2023/12/01 02:49:08;;;;;;;34.33;13.20;;;;;;;;;;5037797;28;20021;-71
2023/12/01 02:51:33;;;;;;;30.17;12.07;;;;;;;;;;5038553;28;20041;-70
2023/12/01 02:53:58;;;;;;;36.70;13.40;;;;;;;;;;5037351;28;20464;-70
2023/12/01 02:56:24;;;;;;;33.83;12.90;;;;;;;;;;5039858;28;20025;-69
2023/12/01 02:58:49;;;;;;;36.53;12.90;;;;;;;;;;5036612;28;20016;-69
2023/12/01 03:01:15;;;;;;;34.00;12.80;;;;;;;;;;5035382;28;20014;-72
2023/12/01 03:03:40;;;;;;;35.03;13.33;;;;;;;;;;5040432;28;20017;-70
2023/12/01 03:06:05;;;;;;;35.60;13.03;;;;;;;;;;5036127;28;20021;-70
2023/12/01 03:08:31;;;;;;;37.53;12.43;;;;;;;;;;5039925;28;20029;-70
2023/12/01 03:10:56;;;;;;;37.60;12.23;;;;;;;;;;5030892;28;20082;-70
2023/12/01 03:13:22;;;;;;;34.90;12.43;;;;;;;;;;5036710;28;20115;-70
2023/12/01 03:15:47;;;;;;;31.53;12.57;;;;;;;;;;5030242;28;20017;-71
2023/12/01 03:18:13;;;;;;;26.37;9.50;;;;;;;;;;5030053;28;20079;-70
2023/12/01 03:20:38;;;;;;;33.97;10.43;;;;;;;;;;5041076;28;20028;-70
2023/12/01 03:23:03;;;;;;;40.27;11.83;;;;;;;;;;5031341;28;20394;-71
2023/12/01 03:25:29;;;;;;;34.83;12.90;;;;;;;;;;5038642;28;20037;-69
2023/12/01 03:27:54;;;;;;;34.30;12.73;;;;;;;;;;5028015;28;20123;-70
2023/12/01 03:30:20;;;;;;;33.27;12.83;;;;;;;;;;5029754;28;20496;-69
2023/12/01 03:32:46;;;;;;;31.93;12.57;;;;;;;;;;5036567;28;20052;-70
2023/12/01 03:35:20;;;;;;;35.60;12.53;;;;;;;;;;5032723;28;20120;-69
2023/12/01 03:37:45;;;;;;;37.00;12.67;;;;;;;;;;5035453;28;20025;-67
2023/12/01 03:40:14;;;;;;;38.17;12.23;;;;;;;;;;5032540;28;20028;-66
2023/12/01 03:42:40;;;;;;;28.80;10.57;;;;;;;;;;5034770;28;20028;-64
2023/12/01 03:45:06;;;;;;;32.67;11.97;;;;;;;;;;5039817;28;20028;-67
2023/12/01 03:47:32;;;;;;;31.53;12.27;;;;;;;;;;5036665;28;20048;-65
2023/12/01 03:49:57;;;;;;;34.87;11.67;;;;;;;;;;5033908;28;20021;-65
2023/12/01 03:52:22;;;;;;;37.17;12.67;;;;;;;;;;5036580;28;20060;-65
2023/12/01 03:54:48;;;;;;;35.20;13.57;;;;;;;;;;5037467;28;20052;-66
2023/12/01 03:57:13;;;;;;;36.70;13.77;;;;;;;;;;5036998;28;20391;-64
2023/12/01 03:59:39;;;;;;;34.27;12.27;;;;;;;;;;5036619;28;20047;-67
2023/12/01 04:02:04;;;;;;;31.73;12.77;;;;;;;;;;5040980;28;20022;-65
2023/12/01 04:04:29;;;;;;;36.10;13.73;;;;;;;;;;5042040;28;20041;-65
2023/12/01 04:06:55;;;;;;;34.40;13.23;;;;;;;;;;5037501;28;20084;-65
2023/12/01 04:09:20;;;;;;;39.60;13.00;;;;;;;;;;5036926;28;20059;-65
2023/12/01 04:11:45;;;;;;;32.57;12.50;;;;;;;;;;5039513;28;20396;-64
2023/12/01 04:14:11;;;;;;;29.37;12.13;;;;;;;;;;5039402;28;20449;-66
2023/12/01 04:16:36;;;;;;;29.97;11.13;;;;;;;;;;5035955;28;20044;-65
2023/12/01 04:19:02;;;;;;;32.93;11.87;;;;;;;;;;5037488;28;20025;-66
2023/12/01 04:21:27;;;;;;;30.97;12.20;;;;;;;;;;5039697;28;20032;-64
2023/12/01 04:23:52;;;;;;;37.80;13.77;;;;;;;;;;5039123;28;20025;-65
2023/12/01 04:26:18;;;;;;;33.70;12.90;;;;;;;;;;5030715;28;20128;-65
2023/12/01 04:28:43;;;;;;;33.40;12.73;;;;;;;;;;5037413;28;20268;-64
2023/12/01 04:31:08;;;;;;;33.43;12.17;;;;;;;;;;5035350;28;20036;-65
2023/12/01 04:33:34;;;;;;;34.00;13.17;;;;;;;;;;5040334;28;20638;-66
2023/12/01 04:35:59;;;;;;;34.83;12.53;;;;;;;;;;5036693;28;20654;-64
2023/12/01 04:38:25;;;;;;;31.20;11.70;;;;;;;;;;5030557;28;20029;-65
2023/12/01 04:40:50;;;;;;;30.73;12.53;;;;;;;;;;5044533;28;20021;-64
2023/12/01 04:43:17;;;;;;;29.33;10.83;;;;;;;;;;5036715;28;20029;-66
2023/12/01 04:45:43;;;;;;;29.10;11.03;;;;;;;;;;5040791;28;20027;-67
2023/12/01 04:48:08;;;;;;;29.40;11.13;;;;;;;;;;5033381;28;20117;-70
2023/12/01 04:50:34;;;;;;;31.20;11.60;;;;;;;;;;5039289;28;20029;-71
2023/12/01 04:53:00;;;;;;;29.50;11.03;;;;;;;;;;5043156;28;20505;-69
2023/12/01 04:55:26;;;;;;;31.03;10.97;;;;;;;;;;5041638;28;20028;-70
2023/12/01 04:57:52;;;;;;;27.03;10.90;;;;;;;;;;5039357;28;20055;-71
2023/12/01 05:00:21;;;;;;;28.23;10.87;;;;;;;;;;5037539;28;20025;-70
2023/12/01 05:02:47;;;;;;;27.20;10.47;;;;;;;;;;5039265;28;20611;-70
2023/12/01 05:05:13;;;;;;;32.57;11.70;;;;;;;;;;5040522;28;20032;-71
2023/12/01 05:07:38;;;;;;;28.20;11.13;;;;;;;;;;5038505;28;20107;-70
2023/12/01 05:10:14;;;;;;;32.77;12.63;;;;;;;;;;5037716;28;20029;-71
2023/12/01 05:12:39;;;;;;;32.40;11.50;;;;;;;;;;5035130;28;20465;-71
2023/12/01 05:15:05;;;;;;;26.33;10.20;;;;;;;;;;5036876;28;20032;-69
2023/12/01 05:17:30;;;;;;;29.37;11.50;;;;;;;;;;5034746;28;20035;-70
2023/12/01 05:19:56;;;;;;;34.10;13.53;;;;;;;;;;5038391;28;20018;-70
2023/12/01 05:22:21;;;;;;;29.73;11.30;;;;;;;;;;5034474;28;20461;-69
2023/12/01 05:24:46;;;;;;;30.07;12.33;;;;;;;;;;5035009;28;20021;-70
2023/12/01 05:27:12;;;;;;;32.90;12.33;;;;;;;;;;5033972;28;20390;-71
2023/12/01 05:29:38;;;;;;;43.30;13.87;;;;;;;;;;5032368;28;20574;-70
2023/12/01 05:32:04;;;;;;;34.20;13.10;;;;;;;;;;5039016;28;20025;-72
2023/12/01 05:34:29;;;;;;;36.30;12.97;;;;;;;;;;5031060;28;20033;-69
2023/12/01 05:36:54;;;;;;;33.07;13.27;;;;;;;;;;5037902;28;20118;-72
2023/12/01 05:39:19;;;;;;;29.63;12.60;;;;;;;;;;5033428;28;20053;-75
2023/12/01 05:41:45;;;;;;;31.37;12.87;;;;;;;;;;5036784;28;20048;-75
2023/12/01 05:44:10;;;;;;;31.00;12.63;;;;;;;;;;5040667;28;20488;-72
2023/12/01 05:46:35;;;;;;;35.57;13.10;;;;;;;;;;5030451;28;20029;-74
2023/12/01 05:49:02;;;;;;;33.23;12.80;;;;;;;;;;5033534;28;22158;-70
2023/12/01 05:51:27;;;;;;;30.33;12.43;;;;;;;;;;5040439;28;20084;-72
2023/12/01 05:53:53;;;;;;;32.10;12.07;;;;;;;;;;5038277;28;20485;-72
2023/12/01 05:56:18;;;;;;;31.00;12.47;;;;;;;;;;5040499;28;20029;-74
2023/12/01 05:58:44;;;;;;;31.57;13.20;;;;;;;;;;5037292;28;20025;-73
2023/12/01 06:01:09;;;;;;;32.17;12.67;;;;;;;;;;5036902;28;20047;-73
2023/12/01 06:03:36;;;;;;;33.03;13.80;;;;;;;;;;5038983;28;20071;-72
2023/12/01 06:06:01;;;;;;;28.83;11.93;;;;;;;;;;5040066;28;20021;-73
2023/12/01 06:08:26;;;;;;;28.17;10.77;;;;;;;;;;5038777;28;20400;-70
2023/12/01 06:10:52;;;;;;;25.07;9.57;;;;;;;;;;5036588;28;20025;-69
2023/12/01 06:13:17;;;;;;;28.40;10.43;;;;;;;;;;5042030;28;20123;-69
2023/12/01 06:15:42;;;;;;;32.23;12.77;;;;;;;;;;5036645;28;20612;-68
2023/12/01 06:18:08;;;;;;;30.67;12.27;;;;;;;;;;5037061;28;20021;-69
2023/12/01 06:20:34;;;;;;;29.03;11.73;;;;;;;;;;5039019;28;20420;-68
2023/12/01 06:23:00;;;;;;;29.90;11.13;;;;;;;;;;5036752;28;20029;-69
2023/12/01 06:25:29;;;;;;;32.60;11.10;;;;;;;;;;5039529;28;20381;-71
2023/12/01 06:27:58;;;;;;;39.83;14.57;;;;;;;;;;5037292;28;20437;-69
2023/12/01 06:30:25;;;;;;;32.60;12.60;;;;;;;;;;5038377;28;20044;-69
2023/12/01 06:32:50;;;;;;;34.10;13.23;;;;;;;;;;5037120;28;20035;-69
2023/12/01 06:35:17;;;;;;;37.37;13.97;;;;;;;;;;5030153;28;20021;-71
2023/12/01 06:37:43;;;;;;;33.13;12.63;;;;;;;;;;5038775;28;20119;-71
2023/12/01 06:40:12;;;;;;;36.20;14.07;;;;;;;;;;5036717;28;20586;-71
2023/12/01 06:42:41;;;;;;;31.33;11.87;;;;;;;;;;5033416;28;20128;-71
2023/12/01 06:45:07;;;;;;;32.07;13.00;;;;;;;;;;5031613;28;20426;-69
2023/12/01 06:47:32;;;;;;;42.93;14.23;;;;;;;;;;5042728;28;20059;-71
2023/12/01 06:49:58;;;;;;;36.27;14.17;;;;;;;;;;5032059;28;20353;-70
2023/12/01 06:52:23;;;;;;;36.37;14.00;;;;;;;;;;5036460;28;20053;-69
2023/12/01 06:54:48;;;;;;;33.80;12.80;;;;;;;;;;5028590;28;20026;-71
2023/12/01 06:57:13;;;;;;;34.40;13.40;;;;;;;;;;5030991;28;20272;-70
2023/12/01 06:59:39;;;;;;;33.40;13.67;;;;;;;;;;5035438;28;20028;-70
2023/12/01 07:02:04;;;;;;;34.57;13.17;;;;;;;;;;5040160;28;20063;-72
2023/12/01 07:04:32;;;;;;;30.93;12.27;;;;;;;;;;5037392;28;20030;-71
2023/12/01 07:07:00;;;;;;;31.37;12.40;;;;;;;;;;5033002;28;20044;-65
2023/12/01 07:09:26;;;;;;;36.93;12.40;;;;;;;;;;5036256;28;20029;-65
2023/12/01 07:11:52;;;;;;;33.87;13.07;;;;;;;;;;5036013;28;20370;-66
2023/12/01 07:14:18;;;;;;;33.43;12.67;;;;;;;;;;5035446;28;20121;-65
2023/12/01 07:16:43;;;;;;;34.33;13.23;;;;;;;;;;5037316;28;20570;-65
2023/12/01 07:19:10;;;;;;;35.47;12.63;;;;;;;;;;5032996;28;20021;-65
2023/12/01 07:21:35;;;;;;;34.60;12.47;;;;;;;;;;5046997;28;20462;-67
2023/12/01 07:24:02;;;;;;;34.10;12.77;;;;;;;;;;5033650;28;20049;-65
2023/12/01 07:26:27;;;;;;;37.67;12.23;;;;;;;;;;5031814;28;20378;-65
2023/12/01 07:28:53;;;;;;;32.57;12.97;;;;;;;;;;5035142;28;20031;-64
2023/12/01 07:31:18;;;;;;;31.80;12.60;;;;;;;;;;5030866;28;20036;-64
2023/12/01 07:33:43;;;;;;;34.70;13.07;;;;;;;;;;5036024;28;20021;-66
2023/12/01 07:36:09;;;;;;;34.27;12.33;;;;;;;;;;5038411;28;20083;-66
2023/12/01 07:38:34;;;;;;;32.00;12.60;;;;;;;;;;5039926;28;20479;-67
2023/12/01 07:41:00;;;;;;;31.40;12.23;;;;;;;;;;5036078;28;20017;-67
2023/12/01 07:43:26;;;;;;;32.70;12.03;;;;;;;;;;5033351;28;20039;-67
2023/12/01 07:45:51;;;;;;;30.80;11.87;;;;;;;;;;5042232;28;20050;-68
2023/12/01 07:48:16;;;;;;;37.50;12.00;;;;;;;;;;5036024;28;20045;-66
2023/12/01 07:50:43;;;;;;;31.73;11.83;;;;;;;;;;5039997;28;20096;-67
2023/12/01 07:53:08;;;;;;;33.23;13.50;;;;;;;;;;5035395;28;20167;-67
2023/12/01 07:55:33;;;;;;;35.47;12.63;;;;;;;;;;5037230;28;20429;-67
2023/12/01 07:57:59;;;;;;;32.17;12.63;;;;;;;;;;5040547;28;20018;-68
2023/12/01 08:00:24;;;;;;;33.07;12.53;;;;;;;;;;5040682;28;20369;-68
2023/12/01 08:02:51;;;;;;;33.20;12.93;;;;;;;;;;5037188;28;20021;-68
2023/12/01 08:05:17;;;;;;;30.87;12.87;;;;;;;;;;5033135;28;20386;-68
2023/12/01 08:07:46;;;;;;;33.00;13.10;;;;;;;;;;5041529;28;20036;-67
2023/12/01 08:10:14;;;;;;;33.73;12.23;;;;;;;;;;5042606;28;20013;-67
2023/12/01 08:12:43;;;;;;;32.07;11.87;;;;;;;;;;5040792;28;20021;-67
2023/12/01 08:15:08;;;;;;;33.07;12.33;;;;;;;;;;5036077;28;20021;-68
2023/12/01 08:17:34;;;;;;;32.67;12.67;;;;;;;;;;5039524;28;20029;-70
2023/12/01 08:19:59;;;;;;;33.60;13.07;;;;;;;;;;5037830;28;20374;-70
2023/12/01 08:22:24;;;;;;;33.20;12.07;;;;;;;;;;5038232;28;20028;-70
2023/12/01 08:24:50;;;;;;;30.23;12.97;;;;;;;;;;5037075;28;20075;-69
2023/12/01 08:27:15;;;;;;;38.23;13.47;;;;;;;;;;5039132;28;20025;-69
2023/12/01 08:29:41;;;;;;;33.63;12.87;;;;;;;;;;5037001;28;20190;-69
2023/12/01 08:32:06;;;;;;;34.87;13.93;;;;;;;;;;5040056;28;20021;-69
2023/12/01 08:34:31;;;;;;;32.70;12.53;;;;;;;;;;5033006;28;20022;-69
2023/12/01 08:36:56;;;;;;;35.47;14.43;;;;;;;;;;5040324;28;20018;-69
2023/12/01 08:39:22;;;;;;;32.27;13.13;;;;;;;;;;5037090;28;20017;-69
2023/12/01 08:41:47;;;;;;;38.23;14.33;;;;;;;;;;5037084;28;20028;-70
2023/12/01 08:44:12;;;;;;;34.63;13.70;;;;;;;;;;5039911;28;20397;-70
2023/12/01 08:46:38;;;;;;;33.70;13.17;;;;;;;;;;5035815;28;20500;-69
2023/12/01 08:49:03;;;;;;;31.37;12.50;;;;;;;;;;5036835;28;20048;-70
2023/12/01 08:51:28;;;;;;;32.97;14.17;;;;;;;;;;5036426;28;20126;-70
2023/12/01 08:53:54;;;;;;;34.20;13.67;;;;;;;;;;5035850;28;20024;-70
2023/12/01 08:56:20;;;;;;;32.63;12.63;;;;;;;;;;5040647;28;20419;-69
2023/12/01 08:58:45;;;;;;;37.87;14.23;;;;;;;;;;5039142;28;20100;-70
2023/12/01 09:01:10;;;;;;;35.80;13.60;;;;;;;;;;5035611;28;20013;-69
2023/12/01 09:03:36;;;;;;;34.20;13.37;;;;;;;;;;5037516;28;20104;-70
2023/12/01 09:06:04;;;;;;;34.60;14.07;;;;;;;;;;5040239;28;20028;-70
2023/12/01 09:08:29;;;;;;;35.97;13.87;;;;;;;;;;5040446;28;20108;-70
2023/12/01 09:10:54;;;;;;;32.83;13.50;;;;;;;;;;5041397;28;20249;-70
2023/12/01 09:13:20;;;;;;;37.27;14.07;;;;;;;;;;5028620;28;20079;-70
2023/12/01 09:15:45;;;;;;;30.70;13.40;;;;;;;;;;5039363;28;20013;-69
2023/12/01 09:18:10;;;;;;;32.77;13.13;;;;;;;;;;5034880;28;20032;-69
2023/12/01 09:20:36;;;;;;;31.43;12.57;;;;;;;;;;5041692;28;20174;-69
2023/12/01 09:23:01;;;;;;;41.13;14.10;;;;;;;;;;5037114;28;20017;-69
2023/12/01 09:25:26;;;;;;;37.30;13.63;;;;;;;;;;5036974;28;20134;-69
2023/12/01 09:27:52;;;;;;;37.17;15.23;;;;;;;;;;5038495;28;20104;-66
2023/12/01 09:30:18;;;;;;;36.90;14.53;;;;;;;;;;5035926;28;20584;-66
2023/12/01 09:32:44;;;;;;;38.03;13.73;;;;;;;;;;5034387;28;20370;-67
2023/12/01 09:35:09;;;;;;;34.37;12.87;;;;;;;;;;5035037;28;20059;-67
2023/12/01 09:37:35;;;;;;;34.77;12.60;;;;;;;;;;5035351;28;20013;-68
2023/12/01 09:40:02;;;;;;;44.87;16.10;;;;;;;;;;5037405;28;20263;-66
2023/12/01 09:42:27;;;;;;;37.53;14.73;;;;;;;;;;5037545;28;20481;-68
2023/12/01 09:44:54;;;;;;;38.80;16.03;;;;;;;;;;5032690;28;20099;-68
2023/12/01 09:47:20;;;;;;;37.30;14.63;;;;;;;;;;5038386;28;20462;-68
2023/12/01 09:49:46;;;;;;;44.30;16.10;;;;;;;;;;5035435;28;20702;-68
2023/12/01 09:52:11;;;;;;;41.37;15.13;;;;;;;;;;5037833;28;20036;-68
2023/12/01 09:54:36;;;;;;;38.93;14.77;;;;;;;;;;5036059;28;20601;-69
2023/12/01 09:57:04;;;;;;;39.60;15.20;;;;;;;;;;5038391;28;20021;-67
2023/12/01 09:59:29;;;;;;;37.37;14.30;;;;;;;;;;5034757;28;20029;-67
2023/12/01 10:01:55;;;;;;;38.23;14.37;;;;;;;;;;5042056;28;20147;-67
2023/12/01 10:04:20;;;;;;;36.17;13.93;;;;;;;;;;5041796;28;20049;-68
2023/12/01 10:06:46;;;;;;;42.03;16.00;;;;;;;;;;5037021;28;20024;-68
2023/12/01 10:09:12;;;;;;;40.03;15.97;;;;;;;;;;5039437;28;20371;-68
2023/12/01 10:11:38;;;;;;;37.23;15.70;;;;;;;;;;5036478;28;20601;-67
2023/12/01 10:14:06;;;;;;;39.60;15.57;;;;;;;;;;5039904;28;20091;-67
2023/12/01 10:16:34;;;;;;;42.67;15.63;;;;;;;;;;5037507;28;20522;-67
2023/12/01 10:19:00;;;;;;;35.93;14.07;;;;;;;;;;5038918;28;20112;-67
2023/12/01 10:21:41;;;;;;;38.33;13.40;;;;;;;;;;5030692;28;20108;-68
2023/12/01 10:24:22;;;;;;;39.65;15.82;;;;;;;;;;5035298;28;20064;-68
2023/12/01 10:26:49;;;;;;;38.40;15.38;;;;;;;;;;5032355;28;20614;-68
2023/12/01 10:29:30;;;;;;;39.27;14.63;;;;;;;;;;5034867;28;20028;-67
2023/12/01 10:32:00;;;;;;;40.78;15.18;;;;;;;;;;5036379;28;20543;-68
2023/12/01 10:34:25;;;;;;;38.57;15.33;;;;;;;;;;5035416;28;20389;-67
2023/12/01 10:36:54;;;;;;;40.80;15.73;;;;;;;;;;5036374;28;20013;-67
2023/12/01 10:39:24;;;;;;;37.33;15.37;;;;;;;;;;5031468;28;20017;-68
2023/12/01 10:41:50;;;;;;;39.50;15.17;;;;;;;;;;5031867;28;20666;-67
2023/12/01 10:44:18;;;;;;;41.47;15.17;;;;;;;;;;5039374;28;20053;-67
2023/12/01 10:46:46;;;;;;;43.07;16.53;;;;;;;;;;5031279;28;20738;-67
2023/12/01 10:49:13;;;;;;;43.17;16.83;;;;;;;;;;5036884;28;20040;-70
2023/12/01 10:51:39;;;;;;;40.43;15.80;;;;;;;;;;5034321;28;20521;-70
2023/12/01 10:54:05;;;;;;;43.47;16.97;;;;;;;;;;5033930;28;20096;-70
2023/12/01 10:56:31;;;;;;;41.10;15.77;;;;;;;;;;5036814;28;20497;-70
2023/12/01 10:58:58;;;;;;;39.60;15.13;;;;;;;;;;5031892;28;20329;-67
2023/12/01 11:01:23;;;;;;;44.00;16.27;;;;;;;;;;5039808;28;20009;-68
2023/12/01 11:03:49;;;;;;;41.97;16.90;;;;;;;;;;5039430;28;20139;-67
2023/12/01 11:06:22;;;;;;;40.17;15.03;;;;;;;;;;5036252;28;20029;-67
2023/12/01 11:08:47;;;;;;;40.57;16.00;;;;;;;;;;5033505;28;20131;-67
2023/12/01 11:11:16;;;;;;;46.50;17.93;;;;;;;;;;5042465;28;20665;-67
2023/12/01 11:13:41;;;;;;;46.67;17.60;;;;;;;;;;5044854;28;20454;-68
2023/12/01 11:16:07;;;;;;;42.00;15.60;;;;;;;;;;5043836;28;20028;-68
2023/12/01 11:18:32;;;;;;;39.97;16.50;;;;;;;;;;5037046;28;20015;-67
2023/12/01 11:20:58;;;;;;;39.80;17.10;;;;;;;;;;5040664;28;20075;-68
2023/12/01 11:23:24;;;;;;;46.93;16.97;;;;;;;;;;5042104;28;20537;-65
2023/12/01 11:25:55;;;;;;;48.43;16.87;;;;;;;;;;5039487;28;20029;-66
2023/12/01 11:31:19;;;;;;;37.97;14.37;;;;;;;;;;5038607;28;20353;-64
2023/12/01 11:33:49;;;;;;;37.17;14.80;;;;;;;;;;5040049;28;20044;-67
2023/12/01 11:36:20;;;;;;;36.50;15.13;;;;;;;;;;5041213;28;20485;-65
2023/12/01 11:39:08;;;;;;;34.22;14.32;;;;;;;;;;5034290;28;20481;-65
2023/12/01 11:41:33;;;;;;;31.30;12.90;;;;;;;;;;5036060;28;20164;-65
2023/12/01 11:44:04;;;;;;;35.97;14.50;;;;;;;;;;5042151;28;20020;-65
2023/12/01 11:46:30;;;;;;;35.30;13.75;;;;;;;;;;5045504;28;20016;-66
2023/12/01 11:48:55;;;;;;;38.83;16.07;;;;;;;;;;5034134;28;20466;-65
2023/12/01 11:51:23;;;;;;;42.03;16.17;;;;;;;;;;5037177;28;20041;-67
2023/12/01 11:53:56;;;;;;;41.13;16.27;;;;;;;;;;5038607;28;20009;-65
2023/12/01 11:56:22;;;;;;;43.83;17.37;;;;;;;;;;5038013;28;20549;-66
2023/12/01 11:58:48;;;;;;;46.67;17.57;;;;;;;;;;5035209;28;20482;-68
2023/12/01 12:01:13;;;;;;;43.37;17.23;;;;;;;;;;5037472;28;20020;-67
2023/12/01 12:03:38;;;;;;;43.53;16.70;;;;;;;;;;5036688;28;20631;-65
2023/12/01 12:06:07;;;;;;;46.97;18.87;;;;;;;;;;5037645;28;20033;-66
2023/12/01 12:08:32;;;;;;;39.30;15.67;;;;;;;;;;5040880;28;20657;-66
2023/12/01 12:10:59;;;;;;;45.40;17.53;;;;;;;;;;5036679;28;20059;-66
2023/12/01 12:13:24;;;;;;;44.53;16.40;;;;;;;;;;5036902;28;20497;-65
2023/12/01 12:15:50;;;;;;;41.77;16.20;;;;;;;;;;5036619;28;20017;-67
2023/12/01 12:18:15;;;;;;;44.57;17.33;;;;;;;;;;5038906;28;20115;-65
2023/12/01 12:20:41;;;;;;;43.93;17.53;;;;;;;;;;5039558;28;20105;-65
2023/12/01 12:23:06;;;;;;;38.17;14.60;;;;;;;;;;5034454;28;20015;-65
2023/12/01 12:25:35;;;;;;;34.40;14.23;;;;;;;;;;5039081;28;20378;-66
2023/12/01 12:28:08;;;;;;;47.20;14.50;;;;;;;;;;5035542;28;20589;-66
2023/12/01 12:30:33;;;;;;;36.10;14.33;;;;;;;;;;5034483;28;20087;-68
2023/12/01 12:32:59;;;;;;;39.83;16.33;;;;;;;;;;5039445;28;20033;-67
2023/12/01 12:35:24;;;;;;;35.77;14.50;;;;;;;;;;5039598;28;20052;-68
2023/12/01 12:37:50;;;;;;;34.97;13.30;;;;;;;;;;5043032;28;20028;-66
2023/12/01 12:40:16;;;;;;;34.37;13.33;;;;;;;;;;5035702;28;20030;-68
2023/12/01 12:42:53;;;;;;;36.73;13.90;;;;;;;;;;5040213;28;20492;-65
2023/12/01 12:45:19;;;;;;;31.93;13.33;;;;;;;;;;5037103;28;20016;-66
2023/12/01 12:47:45;;;;;;;36.93;13.37;;;;;;;;;;5034089;28;20378;-65
2023/12/01 12:50:13;;;;;;;29.40;12.23;;;;;;;;;;5038502;28;20025;-64
2023/12/01 12:52:38;;;;;;;29.87;11.03;;;;;;;;;;5038839;28;20072;-66
2023/12/01 12:55:04;;;;;;;31.93;12.70;;;;;;;;;;5039004;28;20076;-65
2023/12/01 12:57:29;;;;;;;30.80;12.20;;;;;;;;;;5035459;28;20025;-65
2023/12/01 12:59:55;;;;;;;30.30;12.50;;;;;;;;;;5038798;28;20397;-66
2023/12/01 13:02:20;;;;;;;37.03;13.77;;;;;;;;;;5044538;28;20025;-65
2023/12/01 13:04:46;;;;;;;34.17;12.50;;;;;;;;;;5038349;28;20530;-65
2023/12/01 13:07:11;;;;;;;37.80;14.40;;;;;;;;;;5035750;28;20032;-66
2023/12/01 13:09:39;;;;;;;36.20;15.30;;;;;;;;;;5036870;28;20492;-66
2023/12/01 13:12:05;;;;;;;40.50;14.83;;;;;;;;;;5035497;28;20498;-64
2023/12/01 13:14:31;;;;;;;36.20;14.20;;;;;;;;;;5038411;28;20107;-66
2023/12/01 13:16:56;;;;;;;34.90;13.37;;;;;;;;;;5036055;28;20021;-73
2023/12/01 13:19:22;;;;;;;35.53;14.07;;;;;;;;;;5037367;28;20630;-70
2023/12/01 13:21:48;;;;;;;47.47;16.10;;;;;;;;;;5033436;28;20032;-71
2023/12/01 13:24:13;;;;;;;46.83;14.93;;;;;;;;;;5036590;28;20059;-71
2023/12/01 13:26:39;;;;;;;35.83;13.13;;;;;;;;;;5042327;28;20044;-70
2023/12/01 13:29:04;;;;;;;37.30;14.00;;;;;;;;;;5039565;28;20032;-71
2023/12/01 13:31:29;;;;;;;40.47;14.77;;;;;;;;;;5040519;28;20056;-71
2023/12/01 13:33:55;;;;;;;46.83;15.57;;;;;;;;;;5039424;28;20458;-72
2023/12/01 13:36:21;;;;;;;46.80;16.53;;;;;;;;;;5036427;28;20017;-71
2023/12/01 13:38:47;;;;;;;41.17;15.57;;;;;;;;;;5042667;28;20019;-72
2023/12/01 13:41:13;;;;;;;37.07;14.27;;;;;;;;;;5039686;28;20025;-71
2023/12/01 13:43:38;;;;;;;44.67;15.37;;;;;;;;;;5041052;28;20108;-72
2023/12/01 13:46:03;;;;;;;37.17;14.20;;;;;;;;;;5032407;28;20036;-71
2023/12/01 13:48:29;;;;;;;44.97;15.77;;;;;;;;;;5036551;28;20095;-70
2023/12/01 13:50:54;;;;;;;40.07;14.87;;;;;;;;;;5037571;28;20060;-71
2023/12/01 13:53:19;;;;;;;41.63;14.23;;;;;;;;;;5034420;28;20120;-73
2023/12/01 13:55:45;;;;;;;37.93;13.23;;;;;;;;;;5028495;28;20052;-72
2023/12/01 13:58:11;;;;;;;41.97;15.13;;;;;;;;;;5033255;28;20067;-71
2023/12/01 14:00:36;;;;;;;36.53;14.13;;;;;;;;;;5030443;28;20461;-71
2023/12/01 14:03:02;;;;;;;34.03;13.60;;;;;;;;;;5039422;28;20028;-74
2023/12/01 14:05:27;;;;;;;35.23;14.13;;;;;;;;;;5032968;28;20021;-70
2023/12/01 14:07:52;;;;;;;38.10;14.23;;;;;;;;;;5033656;28;20013;-71
2023/12/01 14:10:18;;;;;;;37.63;13.10;;;;;;;;;;5034618;28;20116;-75
2023/12/01 14:12:44;;;;;;;34.73;13.30;;;;;;;;;;5039860;28;20066;-74